createdAt,value
2023-02-01T00:00:20.345Z,101487.50
2023-02-01T00:00:42.362Z,101483.97
2023-02-01T00:01:07.443Z,101483.09
2023-02-01T00:01:29.161Z,101488.34
2023-02-01T00:01:51.822Z,101487.50
2023-02-01T00:02:13.591Z,101484.88
2023-02-01T00:02:37.109Z,101489.25
2023-02-01T00:02:58.803Z,101483.88
2023-02-01T00:03:21.490Z,101485.66
2023-02-01T00:03:43.207Z,101483.03
2023-02-01T00:04:05.132Z,101472.47
2023-02-01T00:04:27.247Z,101479.44
2023-02-01T00:04:49.883Z,101482.09
2023-02-01T00:05:11.877Z,101477.72
2023-02-01T00:05:33.562Z,101480.34
2023-02-01T00:05:58.669Z,101470.63
2023-02-01T00:06:20.453Z,101477.63
2023-02-01T00:06:43.026Z,101473.19
2023-02-01T00:07:04.710Z,101475.84
2023-02-01T00:07:26.361Z,101474.97
2023-02-01T00:07:49.023Z,101476.78
2023-02-01T00:08:10.685Z,101479.53
2023-02-01T00:08:34.539Z,101476.03
2023-02-01T00:08:56.773Z,101477.81
2023-02-01T00:09:18.739Z,101483.06
2023-02-01T00:09:40.653Z,101480.44
2023-02-01T00:10:04.478Z,101481.34
2023-02-01T00:10:26.085Z,101480.47
2023-02-01T00:10:47.752Z,101485.81
2023-02-01T00:11:11.205Z,101484.00
2023-02-01T00:11:33.852Z,101484.94
2023-02-01T00:11:56.037Z,101489.31
2023-02-01T00:12:19.020Z,101484.88
2023-02-01T00:12:40.688Z,101491.06
2023-02-01T00:13:03.215Z,101492.84
2023-02-01T00:13:24.795Z,101491.97
2023-02-01T00:13:46.505Z,101488.41
2023-02-01T00:14:09.056Z,101490.19
2023-02-01T00:14:30.680Z,101492.03
2023-02-01T00:14:53.398Z,101491.06
2023-02-01T00:15:15.401Z,101490.19
2023-02-01T00:15:37.163Z,101493.72
2023-02-01T00:16:06.464Z,101493.72
2023-02-01T00:16:30.849Z,101495.50
2023-02-01T00:16:52.422Z,101494.59
2023-02-01T00:17:14.067Z,101492.81
2023-02-01T00:17:35.755Z,101485.84
2023-02-01T00:17:58.356Z,101489.31
2023-02-01T00:18:19.945Z,101486.72
2023-02-01T00:18:42.420Z,101484.97
2023-02-01T00:19:08.552Z,101488.63
2023-02-01T00:19:33.370Z,101501.84
2023-02-01T00:19:55.891Z,101497.47
2023-02-01T00:20:20.164Z,101496.53
2023-02-01T00:20:47.493Z,101490.44
2023-02-01T00:21:12.808Z,101501.81
2023-02-01T00:21:35.563Z,101493.84
2023-02-01T00:21:58.053Z,101497.41
2023-02-01T00:22:23.023Z,101499.16
2023-02-01T00:23:04.123Z,101499.16
2023-02-01T00:23:43.405Z,101492.06
2023-02-01T00:24:07.912Z,101494.69
2023-02-01T00:24:44.450Z,101497.34
2023-02-01T00:25:10.329Z,101506.22
2023-02-01T00:25:34.261Z,101497.31
2023-02-01T00:26:02.652Z,101497.34
2023-02-01T00:26:41.204Z,101500.03
2023-02-01T00:27:08.746Z,101498.25
2023-02-01T00:27:40.817Z,101491.22
2023-02-01T00:28:05.078Z,101498.28
2023-02-01T00:28:33.852Z,101501.81
2023-02-01T00:28:55.496Z,101494.75
2023-02-01T00:29:19.233Z,101498.28
2023-02-01T00:29:41.891Z,101502.72
2023-02-01T00:30:04.265Z,101499.16
2023-02-01T00:30:25.892Z,101500.06
2023-02-01T00:30:47.469Z,101497.47
2023-02-01T00:31:10.204Z,101500.16
2023-02-01T00:31:32.454Z,101493.94
2023-02-01T00:31:54.237Z,101494.75
2023-02-01T00:32:16.111Z,101500.94
2023-02-01T00:32:38.675Z,101487.66
2023-02-01T00:33:00.325Z,101492.09
2023-02-01T00:33:21.942Z,101487.63
2023-02-01T00:33:43.572Z,101480.53
2023-02-01T00:34:06.595Z,101483.19
2023-02-01T00:34:28.303Z,101484.06
2023-02-01T00:34:49.976Z,101484.88
2023-02-01T00:35:11.567Z,101480.50
2023-02-01T00:35:35.813Z,101483.19
2023-02-01T00:35:59.408Z,101484.13
2023-02-01T00:36:21.102Z,101482.34
2023-02-01T00:36:44.030Z,101479.69
2023-02-01T00:37:06.682Z,101484.19
2023-02-01T00:37:28.339Z,101474.47
2023-02-01T00:37:50.357Z,101476.25
2023-02-01T00:38:12.021Z,101485.97
2023-02-01T00:38:35.284Z,101477.28
2023-02-01T00:38:58.227Z,101483.53
2023-02-01T00:39:20.463Z,101481.81
2023-02-01T00:39:42.142Z,101477.38
2023-02-01T00:40:04.739Z,101490.63
2023-02-01T00:40:26.455Z,101479.09
2023-02-01T00:40:49.008Z,101473.84
2023-02-01T00:41:13.604Z,101478.28
2023-02-01T00:41:35.293Z,101481.91
2023-02-01T00:41:57.892Z,101479.19
2023-02-01T00:42:19.524Z,101475.69
2023-02-01T00:42:42.625Z,101476.66
2023-02-01T00:43:04.269Z,101476.59
2023-02-01T00:43:27.067Z,101473.03
2023-02-01T00:43:49.566Z,101484.47
2023-02-01T00:44:11.362Z,101472.97
2023-02-01T00:44:35.360Z,101472.06
2023-02-01T00:44:58.021Z,101478.28
2023-02-01T00:45:19.771Z,101475.56
2023-02-01T00:45:41.641Z,101471.13
2023-02-01T00:46:04.093Z,101482.63
2023-02-01T00:46:26.508Z,101479.16
2023-02-01T00:46:49.193Z,101473.00
2023-02-01T00:47:10.800Z,101470.22
2023-02-01T00:47:33.120Z,101484.41
2023-02-01T00:47:54.764Z,101488.00
2023-02-01T00:48:17.400Z,101476.44
2023-02-01T00:48:39.355Z,101475.53
2023-02-01T00:49:01.042Z,101475.53
2023-02-01T00:49:22.825Z,101477.28
2023-02-01T00:49:46.904Z,101473.69
2023-02-01T00:50:12.942Z,101491.34
2023-02-01T00:50:45.272Z,101479.88
2023-02-01T00:51:18.044Z,101479.81
2023-02-01T00:52:28.328Z,101482.59
2023-02-01T00:52:56.827Z,101485.25
2023-02-01T00:53:24.205Z,101486.06
2023-02-01T00:53:49.370Z,101482.53
2023-02-01T00:54:11.613Z,101486.97
2023-02-01T00:54:43.308Z,101483.41
2023-02-01T00:55:08.100Z,101484.28
2023-02-01T00:55:46.168Z,101479.06
2023-02-01T00:56:10.204Z,101479.97
2023-02-01T00:56:37.305Z,101476.38
2023-02-01T00:57:08.406Z,101476.41
2023-02-01T00:57:35.273Z,101475.53
2023-02-01T00:58:10.229Z,101470.22
2023-02-01T00:58:47.881Z,101472.88
2023-02-01T00:59:15.037Z,101478.19
2023-02-01T00:59:39.931Z,101472.00
2023-02-01T01:00:10.297Z,101477.31
2023-02-01T01:00:32.080Z,101473.78
2023-02-01T01:01:03.388Z,101474.66
2023-02-01T01:01:26.452Z,101472.81
2023-02-01T01:01:49.060Z,101479.88
2023-02-01T01:02:11.838Z,101480.81
2023-02-01T01:02:33.548Z,101480.75
2023-02-01T01:02:55.797Z,101475.53
2023-02-01T01:03:21.059Z,101471.94
2023-02-01T01:03:45.674Z,101476.38
2023-02-01T01:04:07.330Z,101473.72
2023-02-01T01:04:29.956Z,101473.72
2023-02-01T01:04:51.594Z,101465.84
2023-02-01T01:05:13.264Z,101466.75
2023-02-01T01:05:34.850Z,101459.78
2023-02-01T01:05:59.432Z,101451.03
2023-02-01T01:06:23.776Z,101452.00
2023-02-01T01:06:45.500Z,101455.56
2023-02-01T01:07:07.671Z,101452.88
2023-02-01T01:07:29.519Z,101453.75
2023-02-01T01:07:52.160Z,101450.22
2023-02-01T01:08:14.749Z,101443.97
2023-02-01T01:08:36.518Z,101451.06
2023-02-01T01:08:59.850Z,101442.22
2023-02-01T01:09:22.473Z,101440.56
2023-02-01T01:09:44.112Z,101440.50
2023-02-01T01:10:07.314Z,101438.75
2023-02-01T01:10:28.936Z,101441.38
2023-02-01T01:11:00.709Z,101439.63
2023-02-01T01:11:35.327Z,101431.75
2023-02-01T01:12:04.733Z,101435.28
2023-02-01T01:12:30.481Z,101434.38
2023-02-01T01:12:57.846Z,101431.00
2023-02-01T01:13:25.372Z,101437.13
2023-02-01T01:13:51.691Z,101435.44
2023-02-01T01:14:16.297Z,101432.81
2023-02-01T01:14:43.404Z,101426.59
2023-02-01T01:15:11.611Z,101434.47
2023-02-01T01:15:44.037Z,101437.06
2023-02-01T01:16:11.845Z,101441.47
2023-02-01T01:16:40.561Z,101441.47
2023-02-01T01:17:02.877Z,101442.28
2023-02-01T01:17:25.156Z,101447.59
2023-02-01T01:17:51.428Z,101448.53
2023-02-01T01:18:20.589Z,101443.16
2023-02-01T01:18:42.619Z,101448.66
2023-02-01T01:19:13.877Z,101445.09
2023-02-01T01:19:43.137Z,101450.47
2023-02-01T01:20:06.501Z,101458.38
2023-02-01T01:20:34.038Z,101450.41
2023-02-01T01:20:57.423Z,101453.94
2023-02-01T01:21:22.512Z,101454.81
2023-02-01T01:21:45.674Z,101451.25
2023-02-01T01:22:13.166Z,101449.50
2023-02-01T01:22:45.307Z,101454.72
2023-02-01T01:23:08.356Z,101458.22
2023-02-01T01:23:35.585Z,101455.56
2023-02-01T01:24:04.210Z,101459.94
2023-02-01T01:24:34.251Z,101455.47
2023-02-01T01:25:02.080Z,101456.31
2023-02-01T01:25:27.376Z,101462.50
2023-02-01T01:25:55.421Z,101463.38
2023-02-01T01:26:19.719Z,101459.88
2023-02-01T01:26:42.909Z,101460.75
2023-02-01T01:27:11.569Z,101459.88
2023-02-01T01:27:35.952Z,101466.88
2023-02-01T01:28:05.893Z,101466.06
2023-02-01T01:28:33.654Z,101461.66
2023-02-01T01:29:38.548Z,101463.38
2023-02-01T01:30:00.308Z,101473.13
2023-02-01T01:30:23.011Z,101466.94
2023-02-01T01:30:44.918Z,101475.78
2023-02-01T01:31:09.819Z,101465.25
2023-02-01T01:31:32.739Z,101475.97
2023-02-01T01:31:54.651Z,101478.63
2023-02-01T01:32:24.551Z,101481.25
2023-02-01T01:32:46.198Z,101466.28
2023-02-01T01:33:08.867Z,101472.34
2023-02-01T01:33:30.628Z,101480.38
2023-02-01T01:33:54.489Z,101480.34
2023-02-01T01:34:17.117Z,101483.91
2023-02-01T01:34:38.937Z,101480.34
2023-02-01T01:35:00.931Z,101479.59
2023-02-01T01:35:22.564Z,101474.28
2023-02-01T01:35:44.452Z,101482.22
2023-02-01T01:36:07.866Z,101480.47
2023-02-01T01:36:30.083Z,101476.03
2023-02-01T01:36:51.777Z,101474.25
2023-02-01T01:37:13.434Z,101483.09
2023-02-01T01:37:36.379Z,101483.91
2023-02-01T01:37:59.684Z,101485.69
2023-02-01T01:38:21.353Z,101485.63
2023-02-01T01:38:43.537Z,101479.50
2023-02-01T01:39:05.784Z,101481.19
2023-02-01T01:39:28.579Z,101481.16
2023-02-01T01:39:50.267Z,101477.63
2023-02-01T01:40:13.833Z,101478.53
2023-02-01T01:40:35.515Z,101482.88
2023-02-01T01:40:57.197Z,101472.34
2023-02-01T01:41:21.929Z,101481.97
2023-02-01T01:41:43.979Z,101486.47
2023-02-01T01:42:13.164Z,101481.16
2023-02-01T01:42:38.270Z,101492.66
2023-02-01T01:43:00.061Z,101482.94
2023-02-01T01:43:23.402Z,101491.06
2023-02-01T01:43:53.444Z,101481.34
2023-02-01T01:44:52.113Z,101483.00
2023-02-01T01:45:25.633Z,101481.25
2023-02-01T01:46:09.301Z,101483.84
2023-02-01T01:46:56.300Z,101491.78
2023-02-01T01:47:43.375Z,101484.66
2023-02-01T01:48:21.620Z,101488.19
2023-02-01T01:49:00.143Z,101482.94
2023-02-01T01:50:24.219Z,101470.78
2023-02-01T01:50:52.406Z,101469.03
2023-02-01T01:51:22.154Z,101472.50
2023-02-01T01:52:13.729Z,101473.41
2023-02-01T01:52:58.037Z,101475.38
2023-02-01T01:53:37.958Z,101477.09
2023-02-01T01:54:05.990Z,101475.38
2023-02-01T01:54:30.586Z,101480.66
2023-02-01T01:54:55.155Z,101463.91
2023-02-01T01:55:19.168Z,101473.59
2023-02-01T01:55:44.420Z,101480.66
2023-02-01T01:56:07.297Z,101469.13
2023-02-01T01:56:33.289Z,101468.44
2023-02-01T01:57:00.044Z,101466.69
2023-02-01T01:57:28.091Z,101474.56
2023-02-01T01:57:56.884Z,101464.84
2023-02-01T01:58:23.533Z,101472.72
2023-02-01T01:58:45.263Z,101467.41
2023-02-01T01:59:09.616Z,101469.09
2023-02-01T01:59:33.456Z,101466.41
2023-02-01T02:00:03.380Z,101460.19
2023-02-01T02:00:35.935Z,101460.19
2023-02-01T02:00:57.758Z,101457.47
2023-02-01T02:01:20.848Z,101461.97
2023-02-01T02:01:43.217Z,101460.13
2023-02-01T02:02:05.306Z,101467.22
2023-02-01T02:02:27.019Z,101457.50
2023-02-01T02:02:56.392Z,101458.34
2023-02-01T02:03:21.424Z,101468.09
2023-02-01T02:03:45.478Z,101466.31
2023-02-01T02:04:08.501Z,101462.78
2023-02-01T02:04:30.184Z,101454.81
2023-02-01T02:04:51.871Z,101464.47
2023-02-01T02:05:14.723Z,101462.69
2023-02-01T02:05:37.480Z,101461.81
2023-02-01T02:06:01.750Z,101463.56
2023-02-01T02:06:36.312Z,101466.28
2023-02-01T02:07:02.591Z,101456.00
2023-02-01T02:07:28.918Z,101452.41
2023-02-01T02:07:53.832Z,101454.25
2023-02-01T02:08:15.895Z,101453.38
2023-02-01T02:08:38.598Z,101455.94
2023-02-01T02:09:06.976Z,101451.50
2023-02-01T02:09:28.848Z,101453.28
2023-02-01T02:10:00.100Z,101448.81
2023-02-01T02:10:42.451Z,101452.31
2023-02-01T02:11:27.373Z,101444.53
2023-02-01T02:11:48.950Z,101450.63
2023-02-01T02:12:10.829Z,101433.06
2023-02-01T02:12:34.090Z,101442.66
2023-02-01T02:12:56.417Z,101447.97
2023-02-01T02:13:18.927Z,101451.47
2023-02-01T02:13:43.427Z,101448.13
2023-02-01T02:14:10.335Z,101447.19
2023-02-01T02:14:33.066Z,101446.31
2023-02-01T02:14:55.121Z,101449.03
2023-02-01T02:15:18.038Z,101443.72
2023-02-01T02:15:47.013Z,101448.16
2023-02-01T02:16:41.076Z,101442.84
2023-02-01T02:17:09.231Z,101450.69
2023-02-01T02:17:34.657Z,101435.66
2023-02-01T02:18:02.511Z,101441.75
2023-02-01T02:18:33.310Z,101440.03
2023-02-01T02:19:10.325Z,101432.00
2023-02-01T02:20:22.585Z,101431.13
2023-02-01T02:21:02.822Z,101432.88
2023-02-01T02:21:54.388Z,101432.91
2023-02-01T02:22:43.856Z,101438.34
2023-02-01T02:23:55.197Z,101432.09
2023-02-01T02:24:52.959Z,101440.84
2023-02-01T02:25:51.657Z,101440.84
2023-02-01T02:26:26.295Z,101442.53
2023-02-01T02:26:59.195Z,101432.81
2023-02-01T02:27:25.701Z,101440.75
2023-02-01T02:28:00.389Z,101446.06
2023-02-01T02:28:43.948Z,101432.88
2023-02-01T02:29:58.969Z,101440.78
2023-02-01T02:30:55.096Z,101442.59
2023-02-01T02:31:45.171Z,101433.03
2023-02-01T02:32:34.239Z,101432.97
2023-02-01T02:33:30.141Z,101442.69
2023-02-01T02:34:03.794Z,101439.22
2023-02-01T02:34:29.608Z,101431.28
2023-02-01T02:34:57.958Z,101445.44
2023-02-01T02:35:30.017Z,101438.34
2023-02-01T02:36:00.603Z,101441.00
2023-02-01T02:36:35.022Z,101433.13
2023-02-01T02:37:04.341Z,101430.41
2023-02-01T02:37:37.816Z,101440.97
2023-02-01T02:38:11.823Z,101426.03
2023-02-01T02:38:41.979Z,101428.63
2023-02-01T02:39:09.422Z,101430.47
2023-02-01T02:39:40.743Z,101434.88
2023-02-01T02:40:08.168Z,101447.25
2023-02-01T02:40:37.946Z,101440.09
2023-02-01T02:41:36.598Z,101441.88
2023-02-01T02:42:26.768Z,101433.91
2023-02-01T02:43:18.341Z,101427.59
2023-02-01T02:44:05.983Z,101421.53
2023-02-01T02:45:06.165Z,101419.78
2023-02-01T02:45:52.405Z,101432.00
2023-02-01T02:46:39.416Z,101422.28
2023-02-01T02:47:26.439Z,101424.03
2023-02-01T02:47:55.346Z,101428.47
2023-02-01T02:48:22.790Z,101431.91
2023-02-01T02:48:50.028Z,101434.56
2023-02-01T02:49:17.714Z,101437.22
2023-02-01T02:50:08.687Z,101438.91
2023-02-01T02:50:53.259Z,101432.72
2023-02-01T02:51:40.490Z,101434.50
2023-02-01T02:52:28.895Z,101435.38
2023-02-01T02:53:16.085Z,101418.56
2023-02-01T02:54:04.206Z,101428.38
2023-02-01T02:54:52.680Z,101427.75
2023-02-01T02:55:15.654Z,101431.34
2023-02-01T02:55:41.416Z,101432.16
2023-02-01T02:56:39.083Z,101433.19
2023-02-01T02:57:32.492Z,101428.78
2023-02-01T02:58:20.703Z,101422.81
2023-02-01T02:59:13.964Z,101423.63
2023-02-01T03:00:29.642Z,101415.59
2023-02-01T03:01:18.662Z,101417.28
2023-02-01T03:02:13.416Z,101417.16
2023-02-01T03:04:13.189Z,101418.81
2023-02-01T03:04:44.571Z,101409.09
2023-02-01T03:05:25.900Z,101417.00
2023-02-01T03:06:16.801Z,101414.47
2023-02-01T03:06:39.901Z,101404.63
2023-02-01T03:07:13.803Z,101411.69
2023-02-01T03:07:56.210Z,101416.09
2023-02-01T03:08:21.629Z,101407.25
2023-02-01T03:08:46.115Z,101410.72
2023-02-01T03:09:14.753Z,101407.19
2023-02-01T03:09:38.430Z,101415.09
2023-02-01T03:10:05.237Z,101415.97
2023-02-01T03:10:36.469Z,101411.50
2023-02-01T03:11:03.418Z,101406.44
2023-02-01T03:11:47.630Z,101414.31
2023-02-01T03:12:32.886Z,101415.19
2023-02-01T03:12:59.781Z,101405.47
2023-02-01T03:13:29.528Z,101405.56
2023-02-01T03:13:54.007Z,101406.53
2023-02-01T03:14:17.046Z,101400.28
2023-02-01T03:14:42.240Z,101411.72
2023-02-01T03:15:10.067Z,101405.50
2023-02-01T03:15:37.826Z,101411.72
2023-02-01T03:16:05.857Z,101405.56
2023-02-01T03:16:33.799Z,101409.03
2023-02-01T03:17:03.044Z,101409.00
2023-02-01T03:17:33.159Z,101409.84
2023-02-01T03:17:59.005Z,101408.94
2023-02-01T03:18:27.267Z,101407.25
2023-02-01T03:18:56.285Z,101400.25
2023-02-01T03:19:22.803Z,101402.81
2023-02-01T03:19:50.985Z,101399.28
2023-02-01T03:20:15.552Z,101396.56
2023-02-01T03:20:40.778Z,101400.13
2023-02-01T03:21:09.001Z,101399.28
2023-02-01T03:21:36.569Z,101395.81
2023-02-01T03:22:01.296Z,101407.25
2023-02-01T03:22:28.024Z,101405.50
2023-02-01T03:22:52.232Z,101396.78
2023-02-01T03:23:16.847Z,101407.25
2023-02-01T03:23:39.479Z,101404.91
2023-02-01T03:24:08.678Z,101405.72
2023-02-01T03:24:35.515Z,101403.84
2023-02-01T03:25:01.892Z,101407.34
2023-02-01T03:25:28.674Z,101404.63
2023-02-01T03:25:54.531Z,101403.72
2023-02-01T03:26:20.652Z,101408.13
2023-02-01T03:27:06.603Z,101401.06
2023-02-01T03:27:55.669Z,101403.78
2023-02-01T03:28:40.932Z,101408.16
2023-02-01T03:31:14.720Z,101409.88
2023-02-01T03:31:51.092Z,101402.94
2023-02-01T03:32:26.618Z,101413.47
2023-02-01T03:33:27.845Z,101402.28
2023-02-01T03:34:24.558Z,101410.44
2023-02-01T03:38:16.890Z,101397.63
2023-02-01T03:39:13.026Z,101403.22
2023-02-01T03:40:48.962Z,101402.28
2023-02-01T03:41:34.039Z,101404.94
2023-02-01T03:42:05.860Z,101400.44
2023-02-01T03:42:43.601Z,101410.94
2023-02-01T03:43:18.791Z,101410.94
2023-02-01T03:44:23.856Z,101400.66
2023-02-01T03:45:20.768Z,101410.31
2023-02-01T03:46:00.954Z,101401.38
2023-02-01T03:46:53.748Z,101403.97
2023-02-01T03:50:53.577Z,101402.84
2023-02-01T03:51:41.783Z,101386.19
2023-02-01T03:52:50.097Z,101384.38
2023-02-01T03:53:39.699Z,101388.69
2023-02-01T03:54:18.671Z,101383.41
2023-02-01T03:54:53.383Z,101394.19
2023-02-01T03:55:42.811Z,101379.63
2023-02-01T03:57:50.327Z,101381.31
2023-02-01T03:58:14.910Z,101387.41
2023-02-01T03:58:36.545Z,101387.41
2023-02-01T03:59:01.409Z,101380.25
2023-02-01T03:59:29.255Z,101381.06
2023-02-01T03:59:51.110Z,101384.53
2023-02-01T04:00:19.330Z,101382.81
2023-02-01T04:00:41.446Z,101381.13
2023-02-01T04:01:04.187Z,101382.00
2023-02-01T04:01:30.468Z,101382.19
2023-02-01T04:01:52.180Z,101381.22
2023-02-01T04:02:13.874Z,101380.50
2023-02-01T04:02:36.675Z,101383.22
2023-02-01T04:02:58.710Z,101384.03
2023-02-01T04:03:20.692Z,101388.44
2023-02-01T04:03:42.349Z,101390.13
2023-02-01T04:04:05.889Z,101382.09
2023-02-01T04:04:27.890Z,101394.41
2023-02-01T04:04:51.251Z,101383.00
2023-02-01T04:05:14.632Z,101377.59
2023-02-01T04:05:45.679Z,101385.50
2023-02-01T04:06:07.592Z,101388.06
2023-02-01T04:06:29.283Z,101392.50
2023-02-01T04:06:55.212Z,101394.25
2023-02-01T04:07:18.094Z,101388.03
2023-02-01T04:07:39.814Z,101390.66
2023-02-01T04:08:01.449Z,101397.75
2023-02-01T04:08:23.889Z,101397.69
2023-02-01T04:08:45.548Z,101388.00
2023-02-01T04:09:08.120Z,101390.72
2023-02-01T04:09:29.939Z,101387.25
2023-02-01T04:09:51.583Z,101396.06
2023-02-01T04:10:13.619Z,101389.03
2023-02-01T04:10:35.284Z,101392.50
2023-02-01T04:10:57.832Z,101396.00
2023-02-01T04:11:19.515Z,101396.81
2023-02-01T04:11:41.224Z,101397.72
2023-02-01T04:12:03.332Z,101400.34
2023-02-01T04:12:26.119Z,101390.63
2023-02-01T04:12:47.789Z,101394.16
2023-02-01T04:13:09.644Z,101403.88
2023-02-01T04:13:31.229Z,101395.03
2023-02-01T04:13:53.822Z,101402.25
2023-02-01T04:14:15.454Z,101401.38
2023-02-01T04:14:37.167Z,101394.31
2023-02-01T04:14:59.210Z,101396.91
2023-02-01T04:15:20.875Z,101398.66
2023-02-01T04:15:44.021Z,101399.47
2023-02-01T04:16:05.953Z,101396.81
2023-02-01T04:16:27.544Z,101394.19
2023-02-01T04:16:49.275Z,101395.03
2023-02-01T04:17:11.429Z,101395.84
2023-02-01T04:17:34.054Z,101395.03
2023-02-01T04:17:55.832Z,101395.03
2023-02-01T04:18:17.612Z,101396.78
2023-02-01T04:23:08.964Z,101396.66
2023-02-01T04:26:22.095Z,101394.97
2023-02-01T04:27:05.787Z,101394.97
2023-02-01T04:28:03.077Z,101395.09
2023-02-01T04:28:47.116Z,101399.47
2023-02-01T04:29:27.133Z,101393.19
2023-02-01T04:29:58.868Z,101395.84
2023-02-01T04:31:40.423Z,101397.59
2023-02-01T04:33:19.059Z,101391.34
2023-02-01T04:33:48.978Z,101385.06
2023-02-01T04:34:42.967Z,101390.34
2023-02-01T04:35:42.874Z,101385.97
2023-02-01T04:36:36.145Z,101390.34
2023-02-01T04:36:58.417Z,101379.69
2023-02-01T04:37:20.140Z,101385.84
2023-02-01T04:37:43.168Z,101381.44
2023-02-01T04:38:08.084Z,101390.28
2023-02-01T04:38:30.393Z,101377.94
2023-02-01T04:38:52.998Z,101383.38
2023-02-01T04:39:16.414Z,101385.16
2023-02-01T04:39:38.111Z,101379.00
2023-02-01T04:39:59.750Z,101384.25
2023-02-01T04:40:21.763Z,101377.13
2023-02-01T04:40:43.646Z,101379.78
2023-02-01T04:41:06.656Z,101389.50
2023-02-01T04:41:28.248Z,101381.59
2023-02-01T04:41:49.905Z,101385.16
2023-02-01T04:42:11.673Z,101381.69
2023-02-01T04:42:33.258Z,101379.84
2023-02-01T04:42:55.863Z,101377.13
2023-02-01T04:43:18.298Z,101380.75
2023-02-01T04:43:40.047Z,101377.19
2023-02-01T04:44:01.948Z,101387.00
2023-02-01T04:44:24.616Z,101387.88
2023-02-01T04:44:46.285Z,101379.84
2023-02-01T04:45:09.794Z,101383.28
2023-02-01T04:45:31.625Z,101383.22
2023-02-01T04:45:54.940Z,101392.13
2023-02-01T04:46:16.972Z,101384.13
2023-02-01T04:46:38.668Z,101385.06
2023-02-01T04:47:00.230Z,101386.81
2023-02-01T04:47:21.860Z,101389.41
2023-02-01T04:47:44.434Z,101379.75
2023-02-01T04:48:06.491Z,101371.75
2023-02-01T04:48:28.657Z,101380.66
2023-02-01T04:48:50.351Z,101372.78
2023-02-01T04:49:14.250Z,101370.13
2023-02-01T04:49:35.926Z,101367.41
2023-02-01T04:49:57.548Z,101370.06
2023-02-01T04:50:19.329Z,101372.75
2023-02-01T04:50:41.868Z,101363.00
2023-02-01T04:51:03.584Z,101360.34
2023-02-01T04:51:25.276Z,101362.09
2023-02-01T04:51:48.942Z,101362.09
2023-02-01T04:52:11.530Z,101357.66
2023-02-01T04:52:33.404Z,101350.59
2023-02-01T04:52:55.058Z,101355.00
2023-02-01T04:53:18.203Z,101348.09
2023-02-01T04:53:39.880Z,101359.69
2023-02-01T04:54:01.606Z,101350.88
2023-02-01T04:54:23.221Z,101343.25
2023-02-01T04:54:44.844Z,101346.78
2023-02-01T04:55:08.390Z,101352.16
2023-02-01T04:55:30.031Z,101349.56
2023-02-01T04:55:51.960Z,101355.19
2023-02-01T04:56:13.532Z,101346.59
2023-02-01T04:56:36.731Z,101347.50
2023-02-01T04:56:58.483Z,101347.78
2023-02-01T04:57:20.291Z,101344.44
2023-02-01T04:57:41.974Z,101348.69
2023-02-01T04:58:04.552Z,101350.31
2023-02-01T04:58:26.111Z,101355.47
2023-02-01T04:58:47.769Z,101353.59
2023-02-01T04:59:11.722Z,101353.56
2023-02-01T04:59:33.393Z,101354.38
2023-02-01T04:59:55.989Z,101358.75
2023-02-01T05:00:18.450Z,101355.13
2023-02-01T05:00:40.130Z,101352.41
2023-02-01T05:01:05.316Z,101347.06
2023-02-01T05:01:28.083Z,101352.38
2023-02-01T05:01:49.704Z,101350.59
2023-02-01T05:02:11.381Z,101355.84
2023-02-01T05:02:33.233Z,101354.06
2023-02-01T05:02:54.917Z,101346.22
2023-02-01T05:03:17.568Z,101343.63
2023-02-01T05:03:39.219Z,101341.06
2023-02-01T05:04:00.938Z,101351.66
2023-02-01T05:04:22.587Z,101348.31
2023-02-01T05:04:44.226Z,101356.28
2023-02-01T05:05:07.831Z,101349.13
2023-02-01T05:05:29.793Z,101353.50
2023-02-01T05:05:52.798Z,101343.84
2023-02-01T05:06:14.424Z,101349.97
2023-02-01T05:06:37.274Z,101347.25
2023-02-01T05:07:00.194Z,101351.56
2023-02-01T05:07:21.746Z,101355.97
2023-02-01T05:07:44.333Z,101360.34
2023-02-01T05:08:06.653Z,101351.50
2023-02-01T05:08:29.715Z,101347.03
2023-02-01T05:08:51.354Z,101347.97
2023-02-01T05:09:14.012Z,101352.31
2023-02-01T05:09:35.701Z,101361.97
2023-02-01T05:09:57.276Z,101358.41
2023-02-01T05:10:18.873Z,101356.66
2023-02-01T05:10:41.677Z,101359.25
2023-02-01T05:11:05.239Z,101360.09
2023-02-01T05:11:46.767Z,101364.69
2023-02-01T05:12:29.730Z,101369.25
2023-02-01T05:13:10.152Z,101363.06
2023-02-01T05:13:49.896Z,101372.84
2023-02-01T05:14:12.102Z,101363.06
2023-02-01T05:14:33.719Z,101363.06
2023-02-01T05:14:56.301Z,101357.00
2023-02-01T05:15:17.885Z,101356.38
2023-02-01T05:15:39.588Z,101359.16
2023-02-01T05:16:02.648Z,101360.25
2023-02-01T05:16:25.628Z,101352.41
2023-02-01T05:16:47.442Z,101362.09
2023-02-01T05:17:09.308Z,101351.44
2023-02-01T05:17:30.984Z,101359.31
2023-02-01T05:17:53.526Z,101354.88
2023-02-01T05:18:15.622Z,101356.56
2023-02-01T05:18:38.349Z,101357.47
2023-02-01T05:19:00.044Z,101360.94
2023-02-01T05:19:23.131Z,101372.31
2023-02-01T05:19:44.758Z,101365.22
2023-02-01T05:20:09.771Z,101372.22
2023-02-01T05:20:31.714Z,101367.88
2023-02-01T05:20:54.305Z,101369.59
2023-02-01T05:21:16.098Z,101365.97
2023-02-01T05:21:37.885Z,101379.16
2023-02-01T05:22:00.918Z,101376.56
2023-02-01T05:22:24.866Z,101380.91
2023-02-01T05:22:46.529Z,101374.72
2023-02-01T05:23:08.185Z,101388.81
2023-02-01T05:23:30.021Z,101378.22
2023-02-01T05:24:09.716Z,101380.88
2023-02-01T05:24:33.930Z,101380.03
2023-02-01T05:24:55.518Z,101380.00
2023-02-01T05:25:17.382Z,101380.00
2023-02-01T05:25:39.189Z,101382.63
2023-02-01T05:26:01.435Z,101383.44
2023-02-01T05:26:24.106Z,101385.19
2023-02-01T05:26:46.746Z,101379.91
2023-02-01T05:27:08.462Z,101379.91
2023-02-01T05:27:31.257Z,101378.25
2023-02-01T05:27:57.730Z,101370.41
2023-02-01T05:28:19.634Z,101381.75
2023-02-01T05:28:43.510Z,101371.97
2023-02-01T05:29:06.079Z,101371.91
2023-02-01T05:29:28.808Z,101365.72
2023-02-01T05:29:50.700Z,101370.13
2023-02-01T05:30:13.097Z,101366.53
2023-02-01T05:30:36.129Z,101368.31
2023-02-01T05:30:58.869Z,101370.88
2023-02-01T05:31:21.920Z,101360.56
2023-02-01T05:31:46.037Z,101371.97
2023-02-01T05:32:21.712Z,101361.31
2023-02-01T05:32:45.324Z,101362.16
2023-02-01T05:33:06.994Z,101363.00
2023-02-01T05:33:29.336Z,101361.16
2023-02-01T05:33:51.041Z,101361.16
2023-02-01T05:34:15.139Z,101360.31
2023-02-01T05:34:39.127Z,101362.94
2023-02-01T05:35:00.809Z,101372.69
2023-02-01T05:35:23.665Z,101366.63
2023-02-01T05:35:45.335Z,101376.31
2023-02-01T05:36:07.420Z,101369.22
2023-02-01T05:36:30.343Z,101371.00
2023-02-01T05:36:52.305Z,101370.16
2023-02-01T05:37:16.850Z,101374.53
2023-02-01T05:37:39.842Z,101375.56
2023-02-01T05:38:04.122Z,101368.50
2023-02-01T05:38:25.697Z,101365.78